Time;durP1;ratioP1;P1;durP2;ratioP2;P2;SDS_P1;SDS_P2;PMS_P1;PMS_P2;Temp;Humidity;BMP_temperature;BMP_pressure;BME280_temperature;BME280_humidity;BME280_pressure;Samples;Min_cycle;Max_cycle;Signal;HPM_P1;HPM_P2
2022/09/21 00:00:29;;;;;;;2.75;1.20;;;;;;;;;;5090681;28;20040;-69
2022/09/21 00:03:33;;;;;;;2.88;1.30;;;;;;;;;;5091092;28;20028;-69
2022/09/21 00:06:37;;;;;;;4.68;1.38;;;;;;;;;;5090617;28;20032;-68
2022/09/21 00:09:41;;;;;;;3.25;1.40;;;;;;;;;;5090737;28;20047;-69
2022/09/21 00:12:47;;;;;;;2.20;1.23;;;;;;;;;;5090605;28;20036;-69
2022/09/21 00:15:51;;;;;;;3.88;1.27;;;;;;;;;;5094006;28;20040;-69
2022/09/21 00:18:56;;;;;;;2.50;1.27;;;;;;;;;;5094580;28;20028;-68
2022/09/21 00:22:00;;;;;;;5.20;1.45;;;;;;;;;;5094474;28;20389;-68
2022/09/21 00:25:04;;;;;;;1.65;1.00;;;;;;;;;;5094768;28;20480;-70
2022/09/21 00:28:08;;;;;;;4.60;1.48;;;;;;;;;;5094031;28;20055;-69
2022/09/21 00:31:16;;;;;;;2.22;1.30;;;;;;;;;;5094652;28;20040;-69
2022/09/21 00:34:21;;;;;;;1.80;1.27;;;;;;;;;;5094360;28;20040;-69
2022/09/21 00:37:25;;;;;;;2.08;1.23;;;;;;;;;;5094271;28;20040;-69
2022/09/21 00:40:30;;;;;;;2.35;1.10;;;;;;;;;;5093268;28;20052;-70
2022/09/21 00:43:35;;;;;;;2.80;1.50;;;;;;;;;;5093347;28;20028;-70
2022/09/21 00:46:39;;;;;;;2.80;1.00;;;;;;;;;;5093325;28;20041;-69
2022/09/21 00:49:45;;;;;;;4.07;1.00;;;;;;;;;;5094586;28;20460;-70
2022/09/21 00:52:55;;;;;;;2.60;1.02;;;;;;;;;;5093863;28;20040;-69
2022/09/21 00:56:01;;;;;;;4.90;1.30;;;;;;;;;;5093925;28;20044;-69
2022/09/21 00:59:05;;;;;;;2.00;1.08;;;;;;;;;;5093953;28;20472;-68
2022/09/21 01:02:10;;;;;;;2.75;1.02;;;;;;;;;;5094075;28;20377;-68
2022/09/21 01:05:14;;;;;;;5.60;1.20;;;;;;;;;;5093804;28;20365;-68
2022/09/21 01:08:19;;;;;;;2.65;0.85;;;;;;;;;;5092684;28;20040;-68
2022/09/21 01:11:42;;;;;;;3.92;1.00;;;;;;;;;;5093718;28;20048;-68
2022/09/21 01:14:55;;;;;;;3.38;1.17;;;;;;;;;;5093595;28;20032;-69
2022/09/21 01:18:03;;;;;;;5.55;1.15;;;;;;;;;;5093648;28;20044;-69
2022/09/21 01:21:19;;;;;;;2.30;0.85;;;;;;;;;;5092389;28;20040;-69
2022/09/21 01:24:23;;;;;;;4.45;1.00;;;;;;;;;;5093270;28;20052;-69
2022/09/21 01:27:37;;;;;;;2.78;1.00;;;;;;;;;;5092720;28;20044;-69
2022/09/21 01:30:42;;;;;;;2.15;1.02;;;;;;;;;;5093252;28;20044;-69
2022/09/21 01:33:52;;;;;;;2.65;1.00;;;;;;;;;;5093279;28;20365;-69
2022/09/21 01:36:58;;;;;;;2.25;0.90;;;;;;;;;;5093017;28;20040;-69
2022/09/21 01:40:06;;;;;;;2.45;0.80;;;;;;;;;;5091967;28;20476;-69
2022/09/21 01:43:13;;;;;;;2.28;0.95;;;;;;;;;;5092425;28;20032;-70
2022/09/21 01:46:19;;;;;;;1.42;1.00;;;;;;;;;;5092680;28;20040;-69
2022/09/21 01:49:26;;;;;;;4.32;1.48;;;;;;;;;;5093136;28;20040;-69
2022/09/21 01:52:42;;;;;;;1.73;1.20;;;;;;;;;;5091978;28;20032;-69
2022/09/21 01:55:52;;;;;;;3.13;1.10;;;;;;;;;;5092803;28;20614;-69
2022/09/21 01:59:03;;;;;;;3.17;1.10;;;;;;;;;;5091911;28;20044;-67
2022/09/21 02:02:16;;;;;;;4.30;1.00;;;;;;;;;;5092513;28;20389;-70
2022/09/21 02:05:22;;;;;;;2.63;1.02;;;;;;;;;;5092652;28;20044;-70
2022/09/21 02:08:26;;;;;;;1.42;0.90;;;;;;;;;;5092507;28;20036;-69
2022/09/21 02:11:30;;;;;;;2.38;1.00;;;;;;;;;;5092408;28;20035;-70
2022/09/21 02:14:36;;;;;;;1.60;0.85;;;;;;;;;;5092534;28;20032;-70
2022/09/21 02:17:46;;;;;;;2.47;1.02;;;;;;;;;;5092360;28;20559;-69
2022/09/21 02:20:56;;;;;;;1.57;0.87;;;;;;;;;;5092057;28;20044;-69
2022/09/21 02:24:21;;;;;;;1.13;0.70;;;;;;;;;;5092469;28;20036;-69
2022/09/21 02:27:44;;;;;;;1.67;0.77;;;;;;;;;;5091797;28;20048;-69
2022/09/21 02:30:53;;;;;;;5.20;0.82;;;;;;;;;;5091861;28;20040;-69
2022/09/21 02:34:04;;;;;;;1.73;0.88;;;;;;;;;;5091290;28;20036;-70
2022/09/21 02:37:21;;;;;;;4.78;0.98;;;;;;;;;;5091341;28;20032;-69
2022/09/21 02:40:30;;;;;;;4.65;0.70;;;;;;;;;;5090885;28;20032;-70
2022/09/21 02:43:41;;;;;;;3.40;0.70;;;;;;;;;;5092132;28;20048;-68
2022/09/21 02:47:14;;;;;;;2.60;0.70;;;;;;;;;;5091930;28;20040;-68
2022/09/21 02:50:31;;;;;;;2.25;0.70;;;;;;;;;;5091591;28;20381;-68
2022/09/21 02:53:38;;;;;;;2.25;0.68;;;;;;;;;;5091727;28;20043;-68
2022/09/21 02:56:43;;;;;;;3.80;0.55;;;;;;;;;;5091506;28;20040;-70
2022/09/21 02:59:47;;;;;;;4.70;0.70;;;;;;;;;;5091628;28;20032;-68
2022/09/21 03:02:51;;;;;;;2.22;0.70;;;;;;;;;;5091152;28;20036;-68
2022/09/21 03:05:56;;;;;;;0.93;0.60;;;;;;;;;;5090749;28;20070;-69
2022/09/21 03:09:00;;;;;;;2.03;0.50;;;;;;;;;;5090739;28;20036;-69
2022/09/21 03:12:05;;;;;;;2.92;0.60;;;;;;;;;;5090842;28;20040;-69
2022/09/21 03:15:09;;;;;;;4.28;0.60;;;;;;;;;;5090269;28;20036;-69
2022/09/21 03:18:14;;;;;;;0.45;0.45;;;;;;;;;;5090523;28;20032;-68
2022/09/21 03:21:18;;;;;;;1.70;0.68;;;;;;;;;;5090669;28;20043;-69
2022/09/21 03:27:45;;;;;;;1.00;0.60;;;;;;;;;;5090307;28;20043;-68
2022/09/21 03:30:50;;;;;;;1.80;0.60;;;;;;;;;;5089993;28;20484;-69
2022/09/21 03:33:55;;;;;;;1.42;0.57;;;;;;;;;;5091030;28;20040;-69
2022/09/21 03:37:00;;;;;;;4.00;0.73;;;;;;;;;;5090872;28;20036;-69
2022/09/21 03:40:04;;;;;;;0.57;0.43;;;;;;;;;;5091483;28;20036;-69
2022/09/21 03:43:09;;;;;;;1.30;0.60;;;;;;;;;;5091658;28;20052;-69
2022/09/21 03:46:13;;;;;;;0.55;0.40;;;;;;;;;;5090971;28;20040;-69
2022/09/21 03:49:18;;;;;;;0.90;0.70;;;;;;;;;;5093265;28;20040;-69
2022/09/21 03:52:23;;;;;;;1.92;0.60;;;;;;;;;;5094176;28;20372;-69
2022/09/21 03:55:28;;;;;;;1.27;0.50;;;;;;;;;;5095202;28;20452;-69
2022/09/21 03:58:32;;;;;;;4.80;0.60;;;;;;;;;;5094916;28;20036;-69
2022/09/21 04:01:37;;;;;;;6.45;0.68;;;;;;;;;;5095000;28;20385;-69
2022/09/21 04:04:42;;;;;;;2.08;0.57;;;;;;;;;;5094810;28;20044;-69
2022/09/21 04:07:46;;;;;;;1.20;0.68;;;;;;;;;;5094742;28;20036;-69
2022/09/21 04:10:50;;;;;;;0.88;0.60;;;;;;;;;;5095159;28;20040;-69
2022/09/21 04:13:57;;;;;;;3.20;0.68;;;;;;;;;;5094529;28;20032;-70
2022/09/21 04:17:01;;;;;;;0.95;0.60;;;;;;;;;;5093731;28;20476;-70
2022/09/21 04:20:06;;;;;;;0.85;0.50;;;;;;;;;;5094747;28;20040;-70
2022/09/21 04:23:11;;;;;;;3.05;0.80;;;;;;;;;;5094593;28;20040;-70
2022/09/21 04:26:23;;;;;;;4.53;1.02;;;;;;;;;;5094418;28;20369;-70
2022/09/21 04:29:28;;;;;;;5.45;0.90;;;;;;;;;;5082199;28;20048;-70
2022/09/21 04:32:32;;;;;;;2.70;0.60;;;;;;;;;;5094639;28;20036;-70
2022/09/21 04:35:37;;;;;;;5.72;0.80;;;;;;;;;;5094445;28;20032;-70
2022/09/21 04:38:41;;;;;;;8.48;1.30;;;;;;;;;;5093234;28;20032;-69
2022/09/21 04:41:46;;;;;;;17.60;1.88;;;;;;;;;;5094079;28;20043;-69
2022/09/21 04:44:50;;;;;;;7.60;1.63;;;;;;;;;;5093832;28;20039;-68
2022/09/21 04:47:55;;;;;;;8.02;1.00;;;;;;;;;;5093890;28;20040;-70
2022/09/21 04:50:59;;;;;;;10.05;1.40;;;;;;;;;;5094031;28;20032;-70
2022/09/21 04:54:05;;;;;;;2.42;0.82;;;;;;;;;;5093882;28;20503;-70
2022/09/21 04:57:09;;;;;;;7.57;0.70;;;;;;;;;;5094251;28;20391;-70
2022/09/21 05:00:13;;;;;;;3.10;0.88;;;;;;;;;;5092959;28;20036;-70
2022/09/21 05:03:18;;;;;;;1.02;0.70;;;;;;;;;;5093932;28;20056;-70
2022/09/21 05:06:22;;;;;;;6.40;1.10;;;;;;;;;;5092765;28;20039;-71
2022/09/21 05:12:50;;;;;;;2.13;0.70;;;;;;;;;;5092703;28;20545;-74
2022/09/21 05:15:54;;;;;;;3.40;0.98;;;;;;;;;;5093344;28;20036;-72
2022/09/21 05:18:59;;;;;;;1.02;0.63;;;;;;;;;;5093622;28;20028;-70
2022/09/21 05:22:03;;;;;;;1.55;0.70;;;;;;;;;;5093219;28;20036;-70
2022/09/21 05:25:08;;;;;;;5.03;0.88;;;;;;;;;;5092840;28;20032;-73
2022/09/21 05:28:13;;;;;;;7.68;1.05;;;;;;;;;;5079257;28;20048;-74
2022/09/21 05:31:19;;;;;;;3.47;0.90;;;;;;;;;;5092896;28;20040;-73
2022/09/21 05:34:35;;;;;;;4.40;0.73;;;;;;;;;;5093271;28;20036;-73
2022/09/21 05:37:58;;;;;;;4.07;0.77;;;;;;;;;;5080620;28;20040;-72
2022/09/21 05:41:03;;;;;;;2.03;0.70;;;;;;;;;;5093066;28;20052;-73
2022/09/21 05:44:09;;;;;;;10.13;1.10;;;;;;;;;;5092757;28;20123;-72
2022/09/21 05:47:24;;;;;;;7.22;1.15;;;;;;;;;;5092706;28;20047;-74
2022/09/21 05:50:34;;;;;;;16.00;0.80;;;;;;;;;;5092108;28;20036;-74
2022/09/21 05:53:57;;;;;;;5.53;1.10;;;;;;;;;;5092794;28;20058;-74
2022/09/21 05:57:13;;;;;;;9.98;0.90;;;;;;;;;;5091646;28;20028;-73
2022/09/21 06:00:18;;;;;;;4.95;1.00;;;;;;;;;;5092109;28;20503;-73
2022/09/21 06:03:28;;;;;;;4.72;1.40;;;;;;;;;;5092603;28;20048;-72
2022/09/21 06:06:32;;;;;;;7.30;1.20;;;;;;;;;;5092529;28;20570;-71
2022/09/21 06:09:36;;;;;;;8.38;0.85;;;;;;;;;;5092149;28;20028;-73
2022/09/21 06:12:41;;;;;;;8.02;0.98;;;;;;;;;;5092081;28;20468;-72
2022/09/21 06:15:45;;;;;;;5.00;1.00;;;;;;;;;;5091243;28;20032;-74
2022/09/21 06:18:50;;;;;;;5.30;0.80;;;;;;;;;;5092322;28;20044;-73
2022/09/21 06:21:54;;;;;;;7.75;0.95;;;;;;;;;;5092353;28;20479;-74
2022/09/21 06:24:59;;;;;;;5.82;0.88;;;;;;;;;;5092804;28;20059;-72
2022/09/21 06:28:07;;;;;;;7.60;0.93;;;;;;;;;;5092290;28;20143;-73
2022/09/21 06:31:11;;;;;;;5.60;1.23;;;;;;;;;;5092660;28;20040;-76
2022/09/21 06:34:15;;;;;;;2.63;0.85;;;;;;;;;;5079647;28;20096;-71
2022/09/21 06:37:20;;;;;;;6.22;0.73;;;;;;;;;;5092156;28;20372;-76
2022/09/21 06:40:24;;;;;;;9.73;0.70;;;;;;;;;;5092126;28;20036;-72
2022/09/21 06:43:28;;;;;;;8.52;0.60;;;;;;;;;;5093282;28;20040;-75
2022/09/21 06:46:32;;;;;;;6.93;1.05;;;;;;;;;;5092289;28;20487;-74
2022/09/21 06:49:37;;;;;;;4.95;0.93;;;;;;;;;;5091498;28;20040;-73
2022/09/21 06:52:41;;;;;;;2.38;1.00;;;;;;;;;;5091444;28;20032;-76
2022/09/21 06:55:46;;;;;;;5.60;1.52;;;;;;;;;;5092071;28;20040;-75
2022/09/21 06:58:51;;;;;;;7.63;1.30;;;;;;;;;;5091760;28;20036;-70
2022/09/21 07:01:57;;;;;;;3.85;0.93;;;;;;;;;;5091473;28;20040;-71
2022/09/21 07:05:01;;;;;;;3.90;0.70;;;;;;;;;;5091857;28;20028;-76
2022/09/21 07:08:05;;;;;;;1.90;0.77;;;;;;;;;;5091686;28;20043;-71
2022/09/21 07:11:10;;;;;;;2.85;0.88;;;;;;;;;;5091396;28;20036;-75
2022/09/21 07:14:14;;;;;;;3.67;0.93;;;;;;;;;;5091847;28;20028;-74
2022/09/21 07:17:19;;;;;;;4.22;0.77;;;;;;;;;;5091530;28;20032;-72
2022/09/21 07:20:23;;;;;;;4.43;1.13;;;;;;;;;;5090509;28;20032;-74
2022/09/21 07:23:27;;;;;;;5.28;1.23;;;;;;;;;;5090239;28;20040;-77
2022/09/21 07:26:33;;;;;;;11.55;1.23;;;;;;;;;;5091303;28;20044;-78
2022/09/21 07:29:37;;;;;;;5.43;1.05;;;;;;;;;;5091133;28;20209;-78
2022/09/21 07:32:42;;;;;;;7.55;1.10;;;;;;;;;;5090633;28;20483;-78
2022/09/21 07:35:55;;;;;;;9.00;1.77;;;;;;;;;;5091564;28;20349;-77
2022/09/21 07:39:00;;;;;;;6.90;1.40;;;;;;;;;;5091343;28;20040;-79
2022/09/21 07:42:05;;;;;;;4.40;1.10;;;;;;;;;;5090132;28;20039;-76
2022/09/21 07:45:09;;;;;;;7.70;1.30;;;;;;;;;;5090685;28;20174;-74
2022/09/21 07:48:13;;;;;;;1.73;0.85;;;;;;;;;;5091418;28;20040;-78
2022/09/21 07:51:18;;;;;;;2.80;0.80;;;;;;;;;;5090381;28;20036;-76
2022/09/21 07:54:22;;;;;;;3.20;1.08;;;;;;;;;;5091349;28;20044;-81
2022/09/21 08:00:50;;;;;;;3.67;0.88;;;;;;;;;;5091129;28;20365;-77
2022/09/21 08:03:55;;;;;;;5.65;1.00;;;;;;;;;;5090057;28;20036;-79
2022/09/21 08:06:59;;;;;;;7.28;1.33;;;;;;;;;;5090306;28;20036;-80
2022/09/21 08:10:03;;;;;;;6.43;1.13;;;;;;;;;;5090056;28;20496;-75
2022/09/21 08:13:08;;;;;;;5.82;1.20;;;;;;;;;;5090276;28;20040;-75
2022/09/21 08:16:12;;;;;;;3.28;1.10;;;;;;;;;;5090463;28;20040;-76
2022/09/21 08:19:17;;;;;;;7.95;1.42;;;;;;;;;;5091113;28;20476;-77
2022/09/21 08:22:24;;;;;;;3.70;1.27;;;;;;;;;;5090670;28;20048;-79
2022/09/21 08:25:29;;;;;;;5.18;1.40;;;;;;;;;;5090688;28;20044;-75
2022/09/21 08:28:35;;;;;;;2.28;1.10;;;;;;;;;;5090919;28;20048;-74
2022/09/21 08:31:39;;;;;;;6.30;1.90;;;;;;;;;;5090534;28;20045;-74
2022/09/21 08:34:43;;;;;;;4.55;1.30;;;;;;;;;;5091146;28;20384;-77
2022/09/21 08:37:49;;;;;;;8.98;1.60;;;;;;;;;;5094680;28;20496;-75
2022/09/21 08:40:54;;;;;;;13.23;1.67;;;;;;;;;;5070204;28;20044;-79
2022/09/21 08:44:05;;;;;;;7.03;1.20;;;;;;;;;;5094171;28;20051;-76
2022/09/21 08:47:12;;;;;;;10.27;1.30;;;;;;;;;;5094119;28;20032;-75
2022/09/21 08:50:43;;;;;;;8.68;1.13;;;;;;;;;;5094319;28;20043;-74
2022/09/21 08:53:48;;;;;;;8.43;1.30;;;;;;;;;;5093099;28;20032;-73
2022/09/21 08:56:52;;;;;;;6.35;1.17;;;;;;;;;;5093909;28;20036;-78
2022/09/21 08:59:58;;;;;;;4.82;1.00;;;;;;;;;;5093703;28;20210;-83
2022/09/21 09:03:02;;;;;;;8.32;1.08;;;;;;;;;;5093688;28;20047;-80
2022/09/21 09:06:14;;;;;;;5.55;1.05;;;;;;;;;;5093453;28;20036;-74
2022/09/21 09:09:31;;;;;;;3.80;1.10;;;;;;;;;;5092908;28;20040;-77
2022/09/21 09:12:36;;;;;;;5.13;1.30;;;;;;;;;;5093670;28;20028;-74
2022/09/21 09:15:48;;;;;;;10.30;1.60;;;;;;;;;;5093838;28;20040;-80
2022/09/21 09:18:54;;;;;;;3.65;1.48;;;;;;;;;;5093449;28;20518;-77
2022/09/21 09:22:01;;;;;;;4.45;1.42;;;;;;;;;;5093108;28;20040;-76
2022/09/21 09:25:13;;;;;;;4.65;2.15;;;;;;;;;;5092999;28;20051;-76
2022/09/21 09:28:23;;;;;;;9.75;2.47;;;;;;;;;;5093365;28;20044;-75
2022/09/21 09:31:29;;;;;;;5.57;1.40;;;;;;;;;;5093547;28;20098;-77
2022/09/21 09:34:36;;;;;;;7.78;1.58;;;;;;;;;;5093359;28;20044;-79
2022/09/21 09:37:41;;;;;;;6.63;1.42;;;;;;;;;;5093178;28;20048;-73
2022/09/21 09:41:12;;;;;;;3.75;1.15;;;;;;;;;;5093556;28;20036;-76
2022/09/21 09:44:34;;;;;;;4.07;1.23;;;;;;;;;;5093072;28;20036;-73
2022/09/21 09:47:45;;;;;;;6.20;1.08;;;;;;;;;;5091944;28;20048;-74
2022/09/21 09:50:49;;;;;;;2.22;1.27;;;;;;;;;;5093218;28;20039;-75
2022/09/21 09:53:58;;;;;;;4.28;1.40;;;;;;;;;;5093018;28;20036;-74
2022/09/21 09:57:03;;;;;;;5.43;1.20;;;;;;;;;;5092685;28;20040;-72
2022/09/21 10:00:11;;;;;;;5.18;1.30;;;;;;;;;;5092917;28;20472;-74
2022/09/21 10:03:19;;;;;;;;;;;;;;;;;;5092882;28;20491;-71
2022/09/21 10:06:32;;;;;;;4.05;1.30;;;;;;;;;;5091797;28;19919;-76
2022/09/21 10:09:36;;;;;;;3.45;1.45;;;;;;;;;;5080719;28;20040;-75
2022/09/21 10:12:45;;;;;;;5.18;1.40;;;;;;;;;;5092896;28;20036;-75
2022/09/21 10:15:51;;;;;;;3.47;1.40;;;;;;;;;;5092067;28;20044;-72
2022/09/21 10:19:00;;;;;;;9.48;1.50;;;;;;;;;;5091638;28;20036;-75
2022/09/21 10:22:05;;;;;;;10.43;2.10;;;;;;;;;;5091996;28;20044;-73
2022/09/21 10:25:16;;;;;;;10.30;1.92;;;;;;;;;;5093365;28;20047;-74
2022/09/21 10:28:22;;;;;;;5.07;1.40;;;;;;;;;;5092471;28;20403;-76
2022/09/21 10:31:28;;;;;;;5.03;1.40;;;;;;;;;;5092577;28;20032;-75
2022/09/21 10:34:34;;;;;;;2.10;1.38;;;;;;;;;;5092388;28;20483;-72
2022/09/21 10:37:40;;;;;;;6.45;1.38;;;;;;;;;;5092430;28;20504;-74
2022/09/21 10:40:45;;;;;;;6.10;1.48;;;;;;;;;;5092032;28;20055;-72
2022/09/21 10:43:49;;;;;;;3.88;1.38;;;;;;;;;;5091819;28;20052;-69
2022/09/21 10:46:54;;;;;;;4.47;1.50;;;;;;;;;;5079343;28;20369;-72
2022/09/21 10:50:01;;;;;;;4.35;1.55;;;;;;;;;;5091720;28;20036;-72
2022/09/21 10:53:09;;;;;;;2.88;1.35;;;;;;;;;;5090738;28;20040;-73
2022/09/21 10:56:15;;;;;;;6.30;1.38;;;;;;;;;;5091221;28;20036;-71
2022/09/21 10:59:19;;;;;;;3.85;1.50;;;;;;;;;;5090492;28;20377;-72
2022/09/21 11:02:23;;;;;;;3.28;1.10;;;;;;;;;;5090549;28;20048;-71
2022/09/21 11:05:30;;;;;;;4.85;1.40;;;;;;;;;;5091441;28;20028;-74
2022/09/21 11:08:42;;;;;;;3.08;1.20;;;;;;;;;;5091541;28;20488;-77
2022/09/21 11:11:58;;;;;;;3.92;1.20;;;;;;;;;;5091347;28;20031;-72
2022/09/21 11:15:29;;;;;;;2.35;1.10;;;;;;;;;;5091534;28;20044;-72
2022/09/21 11:18:52;;;;;;;3.47;1.25;;;;;;;;;;5078803;28;20039;-72
2022/09/21 11:21:56;;;;;;;3.38;1.80;;;;;;;;;;5091580;28;20396;-75
2022/09/21 11:25:06;;;;;;;2.00;1.10;;;;;;;;;;5091357;28;20040;-73
2022/09/21 11:28:17;;;;;;;3.67;1.20;;;;;;;;;;5090163;28;20115;-71
2022/09/21 11:31:41;;;;;;;7.93;1.23;;;;;;;;;;5091710;28;20395;-72
2022/09/21 11:34:54;;;;;;;6.47;1.35;;;;;;;;;;5091059;28;20317;-75
2022/09/21 11:37:59;;;;;;;7.93;1.20;;;;;;;;;;5091150;28;20029;-73
2022/09/21 11:41:09;;;;;;;5.03;1.15;;;;;;;;;;5091210;28;20035;-75
2022/09/21 11:44:16;;;;;;;3.83;1.70;;;;;;;;;;5091328;28;20048;-74
2022/09/21 11:47:27;;;;;;;7.82;1.50;;;;;;;;;;5091337;28;20036;-74
2022/09/21 11:50:43;;;;;;;4.82;1.42;;;;;;;;;;5091371;28;20048;-74
2022/09/21 11:54:07;;;;;;;3.72;1.27;;;;;;;;;;5090886;28;20032;-74
2022/09/21 11:57:19;;;;;;;3.65;1.00;;;;;;;;;;5091215;28;20040;-73
2022/09/21 12:00:25;;;;;;;3.40;1.27;;;;;;;;;;5091307;28;20036;-73
2022/09/21 12:03:35;;;;;;;3.25;1.38;;;;;;;;;;5090956;28;20358;-73
2022/09/21 12:06:40;;;;;;;7.10;1.65;;;;;;;;;;5091151;28;20487;-74
2022/09/21 12:09:47;;;;;;;10.23;1.58;;;;;;;;;;5091579;28;20372;-75
2022/09/21 12:12:55;;;;;;;5.88;1.40;;;;;;;;;;5094288;28;20051;-70
2022/09/21 12:16:02;;;;;;;7.90;1.73;;;;;;;;;;5094257;28;20040;-72
2022/09/21 12:19:06;;;;;;;7.03;1.60;;;;;;;;;;5093517;28;20039;-72
2022/09/21 12:22:13;;;;;;;2.75;1.33;;;;;;;;;;5094615;28;20055;-70
2022/09/21 12:25:17;;;;;;;7.40;1.63;;;;;;;;;;5094562;28;20386;-72
2022/09/21 12:28:24;;;;;;;8.82;1.60;;;;;;;;;;5094591;28;20388;-71
2022/09/21 12:31:40;;;;;;;7.55;1.80;;;;;;;;;;5093944;28;20040;-70
2022/09/21 12:34:56;;;;;;;6.28;1.20;;;;;;;;;;5094543;28;20036;-71
2022/09/21 12:38:04;;;;;;;8.48;1.98;;;;;;;;;;5094730;28;20044;-73
2022/09/21 12:41:18;;;;;;;5.68;1.73;;;;;;;;;;5094231;28;20036;-69
2022/09/21 12:44:26;;;;;;;3.67;1.45;;;;;;;;;;5093727;28;20044;-71
2022/09/21 12:47:30;;;;;;;11.52;1.80;;;;;;;;;;5094735;28;20040;-72
2022/09/21 12:50:34;;;;;;;2.20;1.20;;;;;;;;;;5094527;28;20051;-72
2022/09/21 12:53:41;;;;;;;5.10;1.40;;;;;;;;;;5093685;28;20036;-71
2022/09/21 12:56:51;;;;;;;9.43;1.67;;;;;;;;;;5093971;28;20036;-73
2022/09/21 13:00:09;;;;;;;4.70;1.50;;;;;;;;;;5094209;28;20484;-71
2022/09/21 13:03:20;;;;;;;8.98;1.83;;;;;;;;;;5093711;28;20048;-72
2022/09/21 13:06:25;;;;;;;;;;;;;;;;;;5094379;28;20369;-72
2022/09/21 13:09:30;;;;;;;6.15;1.45;;;;;;;;;;5094248;28;19915;-72
2022/09/21 13:12:40;;;;;;;2.65;1.75;;;;;;;;;;5093921;28;20036;-71
2022/09/21 13:15:45;;;;;;;4.00;1.30;;;;;;;;;;5093491;28;20032;-72
2022/09/21 13:18:54;;;;;;;10.77;2.80;;;;;;;;;;5092736;28;20036;-72
2022/09/21 13:22:32;;;;;;;7.53;1.73;;;;;;;;;;5091772;28;20047;-72
2022/09/21 13:25:36;;;;;;;6.00;1.45;;;;;;;;;;5092757;28;20036;-71
2022/09/21 13:28:50;;;;;;;6.30;1.70;;;;;;;;;;5093724;28;20480;-74
2022/09/21 13:31:58;;;;;;;7.97;1.50;;;;;;;;;;5093611;28;20032;-70
2022/09/21 13:35:25;;;;;;;9.85;1.48;;;;;;;;;;5093373;28;20044;-74
2022/09/21 13:38:44;;;;;;;6.97;1.40;;;;;;;;;;5092569;28;20369;-73
2022/09/21 13:41:49;;;;;;;7.70;1.50;;;;;;;;;;5091992;28;20052;-75
2022/09/21 13:44:53;;;;;;;8.50;1.77;;;;;;;;;;5092422;28;20389;-75
2022/09/21 13:47:59;;;;;;;7.82;1.80;;;;;;;;;;5092938;28;20024;-75
2022/09/21 13:51:07;;;;;;;8.07;1.67;;;;;;;;;;5092826;28;20044;-70
2022/09/21 13:54:13;;;;;;;8.88;1.85;;;;;;;;;;5092438;28;20040;-73
2022/09/21 13:57:31;;;;;;;10.02;1.55;;;;;;;;;;5080691;28;20036;-79
2022/09/21 14:00:55;;;;;;;4.60;1.40;;;;;;;;;;5093204;28;20412;-76
2022/09/21 14:04:05;;;;;;;7.63;2.33;;;;;;;;;;5092694;28;20040;-70
2022/09/21 14:07:09;;;;;;;7.78;1.90;;;;;;;;;;5092133;28;20040;-73
2022/09/21 14:10:18;;;;;;;4.55;1.60;;;;;;;;;;5093316;28;20047;-76
2022/09/21 14:13:29;;;;;;;4.32;1.35;;;;;;;;;;5093321;28;20036;-76
2022/09/21 14:16:34;;;;;;;13.97;2.10;;;;;;;;;;5092930;28;20036;-76
2022/09/21 14:19:38;;;;;;;7.25;1.92;;;;;;;;;;5092450;28;20491;-70
2022/09/21 14:22:43;;;;;;;6.13;2.20;;;;;;;;;;5091415;28;20056;-70
2022/09/21 14:25:48;;;;;;;8.70;2.22;;;;;;;;;;5092410;28;20040;-78
2022/09/21 14:28:52;;;;;;;3.25;1.73;;;;;;;;;;5092045;28;20048;-73
2022/09/21 14:31:59;;;;;;;6.78;2.10;;;;;;;;;;5091720;28;20044;-72
2022/09/21 14:35:11;;;;;;;7.45;1.88;;;;;;;;;;5091138;28;20035;-73
2022/09/21 14:38:19;;;;;;;6.03;1.63;;;;;;;;;;5091965;28;20044;-74
2022/09/21 14:41:24;;;;;;;3.00;1.73;;;;;;;;;;5092047;28;20036;-78
2022/09/21 14:44:30;;;;;;;8.55;1.80;;;;;;;;;;5091741;28;20385;-74
2022/09/21 14:47:52;;;;;;;4.82;1.88;;;;;;;;;;5092160;28;20050;-73
2022/09/21 14:51:01;;;;;;;7.78;1.77;;;;;;;;;;5079349;28;20048;-77
2022/09/21 14:54:21;;;;;;;9.35;2.20;;;;;;;;;;5091552;28;20036;-74
2022/09/21 14:57:36;;;;;;;5.20;1.80;;;;;;;;;;5090866;28;20040;-77
2022/09/21 15:00:44;;;;;;;6.18;1.25;;;;;;;;;;5091442;28;20048;-78
2022/09/21 15:03:55;;;;;;;5.85;2.13;;;;;;;;;;5091311;28;20198;-75
2022/09/21 15:13:55;;;;;;;6.68;1.25;;;;;;;;;;5091613;28;20035;-74
2022/09/21 15:17:00;;;;;;;4.70;1.13;;;;;;;;;;5091411;28;20369;-74
2022/09/21 15:20:15;;;;;;;5.05;1.42;;;;;;;;;;5091577;28;20040;-75
2022/09/21 15:23:19;;;;;;;3.63;1.58;;;;;;;;;;5091145;28;20048;-73
2022/09/21 15:26:28;;;;;;;4.50;1.40;;;;;;;;;;5078669;28;20044;-73
2022/09/21 15:29:33;;;;;;;3.35;1.42;;;;;;;;;;5091076;28;20048;-75
2022/09/21 15:32:42;;;;;;;3.92;1.40;;;;;;;;;;5090908;28;20040;-74
2022/09/21 15:35:46;;;;;;;4.93;1.15;;;;;;;;;;5090814;28;20044;-76
2022/09/21 15:38:52;;;;;;;5.35;1.58;;;;;;;;;;5091421;28;20032;-80
2022/09/21 15:42:09;;;;;;;4.40;1.27;;;;;;;;;;5091056;28;20040;-73
2022/09/21 15:45:15;;;;;;;3.53;1.15;;;;;;;;;;5090087;28;20043;-73
2022/09/21 15:48:20;;;;;;;9.02;1.35;;;;;;;;;;5091041;28;20040;-75
2022/09/21 15:51:30;;;;;;;3.05;1.33;;;;;;;;;;5090759;28;20036;-73
2022/09/21 15:54:34;;;;;;;4.68;1.30;;;;;;;;;;5091034;28;20036;-77
2022/09/21 15:57:42;;;;;;;8.07;1.10;;;;;;;;;;5090969;28;20036;-79
2022/09/21 16:00:54;;;;;;;4.63;0.95;;;;;;;;;;5091677;28;20043;-79
2022/09/21 16:04:04;;;;;;;8.75;1.20;;;;;;;;;;5091206;28;20520;-75
2022/09/21 16:07:24;;;;;;;3.45;1.35;;;;;;;;;;5089771;28;20171;-73
2022/09/21 16:10:36;;;;;;;2.45;1.05;;;;;;;;;;5089969;28;20036;-78
2022/09/21 16:17:07;;;;;;;7.82;1.35;;;;;;;;;;5090933;28;20048;-73
2022/09/21 16:20:13;;;;;;;4.70;1.20;;;;;;;;;;5089766;28;20028;-74
2022/09/21 16:23:22;;;;;;;4.30;0.80;;;;;;;;;;5090448;28;20043;-72
2022/09/21 16:26:31;;;;;;;8.20;1.65;;;;;;;;;;5090422;28;20036;-76
2022/09/21 16:29:42;;;;;;;1.83;0.90;;;;;;;;;;5090963;28;20048;-75
2022/09/21 16:32:47;;;;;;;8.70;1.27;;;;;;;;;;5090548;28;20048;-72
2022/09/21 16:35:51;;;;;;;2.22;0.75;;;;;;;;;;5090453;28;20044;-75
2022/09/21 16:38:55;;;;;;;4.28;1.23;;;;;;;;;;5090320;28;20036;-77
2022/09/21 16:42:04;;;;;;;7.10;2.72;;;;;;;;;;5090399;28;20036;-74
2022/09/21 16:45:23;;;;;;;12.43;6.15;;;;;;;;;;5089699;28;20040;-80
2022/09/21 16:48:27;;;;;;;6.55;1.10;;;;;;;;;;5090433;28;20050;-76
2022/09/21 16:51:32;;;;;;;4.68;1.40;;;;;;;;;;5089678;28;20035;-73
2022/09/21 16:54:36;;;;;;;6.28;1.80;;;;;;;;;;5089621;28;20036;-74
2022/09/21 16:57:47;;;;;;;5.35;1.60;;;;;;;;;;5092153;28;20500;-74
2022/09/21 17:00:53;;;;;;;4.75;2.35;;;;;;;;;;5093226;28;20512;-74
2022/09/21 17:03:57;;;;;;;6.25;1.50;;;;;;;;;;5093588;28;20048;-72
2022/09/21 17:07:04;;;;;;;7.25;1.15;;;;;;;;;;5092857;28;20036;-75
2022/09/21 17:10:14;;;;;;;3.53;1.40;;;;;;;;;;5093214;28;20104;-74
2022/09/21 17:13:19;;;;;;;3.85;1.75;;;;;;;;;;5093342;28;20036;-76
2022/09/21 17:16:23;;;;;;;3.92;1.60;;;;;;;;;;5093345;28;20039;-75
2022/09/21 17:19:28;;;;;;;4.25;1.25;;;;;;;;;;5093288;28;20032;-75
2022/09/21 17:22:32;;;;;;;9.38;1.55;;;;;;;;;;5093611;28;20512;-73
2022/09/21 17:25:37;;;;;;;5.90;1.08;;;;;;;;;;5092764;28;20056;-75
2022/09/21 17:28:43;;;;;;;4.70;0.80;;;;;;;;;;5093485;28;20048;-74
2022/09/21 17:31:55;;;;;;;5.10;1.10;;;;;;;;;;5091800;28;20472;-75
2022/09/21 17:35:05;;;;;;;8.40;1.20;;;;;;;;;;5092036;28;20043;-72
2022/09/21 17:38:11;;;;;;;;;;;;;;;;;;5091796;28;20369;-75
2022/09/21 17:41:23;;;;;;;4.20;1.00;;;;;;;;;;5092239;28;19923;-74
2022/09/21 17:44:30;;;;;;;3.42;1.30;;;;;;;;;;5092187;28;20437;-74
2022/09/21 17:47:34;;;;;;;5.90;1.52;;;;;;;;;;5092391;28;20036;-75
2022/09/21 17:50:38;;;;;;;5.97;1.58;;;;;;;;;;5091777;28;20040;-72
2022/09/21 17:53:43;;;;;;;3.60;1.30;;;;;;;;;;5092558;28;20036;-73
2022/09/21 17:56:50;;;;;;;5.60;1.80;;;;;;;;;;5092695;28;20032;-74
2022/09/21 18:00:04;;;;;;;3.28;0.80;;;;;;;;;;5092668;28;20032;-72
2022/09/21 18:03:39;;;;;;;1.60;0.95;;;;;;;;;;5091962;28;20044;-72
2022/09/21 18:06:45;;;;;;;2.08;1.10;;;;;;;;;;5092613;28;20036;-72
2022/09/21 18:09:49;;;;;;;5.32;1.30;;;;;;;;;;5092551;28;20036;-72
2022/09/21 18:13:08;;;;;;;7.10;1.42;;;;;;;;;;5092053;28;20044;-72
2022/09/21 18:16:26;;;;;;;9.95;1.70;;;;;;;;;;5091498;28;20040;-73
2022/09/21 18:19:37;;;;;;;4.90;1.30;;;;;;;;;;5092322;28;20036;-72
2022/09/21 18:22:47;;;;;;;4.00;1.30;;;;;;;;;;5091691;28;20032;-72
2022/09/21 18:25:55;;;;;;;1.77;0.80;;;;;;;;;;5092281;28;20511;-72
2022/09/21 18:29:00;;;;;;;4.55;0.93;;;;;;;;;;5091651;28;20052;-72
2022/09/21 18:32:04;;;;;;;11.82;1.88;;;;;;;;;;5093268;28;20040;-72
2022/09/21 18:35:12;;;;;;;6.90;1.25;;;;;;;;;;5092388;28;20039;-72
2022/09/21 18:38:20;;;;;;;5.70;0.90;;;;;;;;;;5092101;28;20504;-73
2022/09/21 18:41:31;;;;;;;3.85;1.10;;;;;;;;;;5091898;28;20369;-72
2022/09/21 18:44:45;;;;;;;3.80;1.23;;;;;;;;;;5091990;28;20048;-72
2022/09/21 18:47:49;;;;;;;3.70;0.90;;;;;;;;;;5092021;28;20032;-72
2022/09/21 18:50:57;;;;;;;0.80;0.60;;;;;;;;;;5091820;28;20488;-72
2022/09/21 18:54:01;;;;;;;1.40;0.70;;;;;;;;;;5092157;28;20036;-73
2022/09/21 18:57:11;;;;;;;4.05;0.98;;;;;;;;;;5091857;28;20040;-73
2022/09/21 19:00:15;;;;;;;4.93;0.80;;;;;;;;;;5091295;28;20032;-72
2022/09/21 19:03:20;;;;;;;7.07;0.95;;;;;;;;;;5091464;28;20040;-72
2022/09/21 19:06:31;;;;;;;2.10;0.88;;;;;;;;;;5090588;28;20040;-72